Latest Weather Observations for Low Rocky Point

IDT60801

Issued at 5:01 pm EST Saturday 18 April 2015 (issued every 30 minutes, with the page automatically refreshed every 10 minutes)

About weather observations | Map of weather stations | Latest weather observations for TAS | Other Formats
Station Details ID: 097080 Name: LOW ROCKY POINT Lat: -42.98 Lon: 145.50 Height: 34.0 m
Data from the previous 72 hours. | See also: Recent months at Low Rocky Point
Date/Time
EST
Temp
°C
App
Temp
°C
Dew
Point
Rel
Hum
%
Delta-T
°C
Wind Press
QNH
hPa
Press
MSL
hPa
Rain
since 9 am
mm
Dir
 
Spd
km/h
Gust
km/h
Spd
kts
Gust
kts
18/05:00pm 9.9 1.3 9.0 94 0.4 WNW 44 67 24 36 1005.8 1005.8 13.8
18/04:54pm 10.9 3.6 10.1 95 0.4 NW 39 57 21 31 1005.9 1005.9 12.2
18/04:30pm 10.9 4.4 10.3 96 0.3 NW 35 48 19 26 1005.4 1005.4 12.2
18/04:00pm 10.6 2.9 10.1 97 0.3 NW 41 50 22 27 1005.3 1005.3 12.0
18/03:30pm 10.5 4.5 10.0 97 0.3 NW 32 39 17 21 1005.2 1005.2 11.8
18/03:00pm 10.3 3.3 10.0 98 0.2 NW 37 44 20 24 1005.0 1005.0 10.8
18/02:30pm 10.4 4.2 9.9 97 0.3 WNW 33 39 18 21 1004.8 1004.8 9.0
18/02:00pm 10.6 4.0 10.1 97 0.3 WNW 35 46 19 25 1004.7 1004.7 7.4
18/01:30pm 10.7 4.5 10.2 97 0.3 W 33 43 18 23 1004.3 1004.3 5.8
18/01:00pm 10.9 3.7 10.4 97 0.3 W 39 50 21 27 1003.9 1003.9 5.0
18/12:30pm 10.6 2.5 10.1 97 0.3 WSW 43 57 23 31 1003.9 1003.9 3.8
18/12:09pm 11.4 2.5 10.5 94 0.5 NW 48 80 26 43 1002.9 1002.9 2.0
18/12:00pm 13.7 5.6 13.1 96 0.3 NNW 48 72 26 39 1002.5 1002.5 0.2
18/11:30am 13.2 4.8 12.4 95 0.4 NNW 48 69 26 37 1002.6 1002.6 0.2
18/11:00am 12.9 4.6 11.3 90 0.8 NNW 46 70 25 38 1002.9 1002.9 0.0
18/10:30am 13.4 4.6 11.1 86 1.2 NNW 48 70 26 38 1003.1 1003.1 0.0
18/10:03am 13.7 4.5 10.9 83 1.5 NNW 50 72 27 39 1003.3 1003.3 0.0
18/10:00am 13.7 4.5 10.9 83 1.5 NNW 50 65 27 35 1003.2 1003.2 0.0
18/09:30am 13.8 5.5 10.2 79 1.9 NNW 44 72 24 39 1003.7 1003.7 0.0
18/09:09am 13.7 6.7 10.1 79 1.9 NNW 37 61 20 33 1003.9 1003.9 0.0
18/09:00am 13.6 6.2 10.0 79 1.9 NNW 39 54 21 29 1004.1 1004.1 0.0
18/08:36am 13.7 7.0 9.6 76 2.1 NNW 35 54 19 29 1004.4 1004.4 0.0
18/08:30am 13.8 7.4 9.5 75 2.2 NNW 33 48 18 26 1004.5 1004.5 0.0
18/08:00am 13.8 7.5 8.8 72 2.5 NNW 32 44 17 24 1004.5 1004.5 0.0
18/07:30am 13.9 6.5 8.3 69 2.8 NNW 37 56 20 30 1004.6 1004.6 0.0
18/07:04am 14.0 7.0 8.6 70 2.7 NNW 35 54 19 29 1004.7 1004.7 0.0
18/07:00am 13.9 7.3 8.5 70 2.7 NNW 33 50 18 27 1004.7 1004.7 0.0
18/06:30am 14.0 6.9 9.4 74 2.4 NNW 37 57 20 31 1004.8 1004.8 0.0
18/06:23am 14.2 6.4 9.6 74 2.4 NNW 41 57 22 31 1004.9 1004.9 0.0
18/06:22am 14.1 6.2 9.5 74 2.4 NNW 41 57 22 31 1005.0 1005.0 0.0
18/06:01am 14.3 3.7 9.9 75 2.3 NW 56 74 30 40 1005.2 1005.2 0.0
18/06:00am 14.4 3.6 10.0 75 2.3 NW 57 74 31 40 1005.2 1005.2 0.0
18/05:30am 14.1 3.6 10.3 78 2.0 NNW 56 69 30 37 1005.1 1005.1 0.0
18/05:00am 14.2 3.7 10.4 78 2.0 NNW 56 69 30 37 1005.3 1005.3 0.0
18/04:30am 14.1 4.9 10.9 81 1.7 NNW 50 67 27 36 1005.5 1005.5 0.0
18/04:14am 13.5 6.2 10.3 81 1.7 NNW 39 59 21 32 1005.6 1005.6 0.0
18/04:00am 13.2 6.5 9.8 80 1.8 NNW 35 52 19 28 1005.7 1005.7 0.0
18/03:30am 13.0 6.6 9.4 79 1.8 NNW 33 44 18 24 1006.0 1006.0 0.0
18/03:00am 12.8 6.0 9.1 78 1.9 NNW 35 48 19 26 1006.3 1006.3 0.0
18/02:32am 12.9 6.6 9.0 77 2.0 NNW 32 50 17 27 1006.8 1006.8 0.0
18/02:30am 12.9 6.4 9.0 77 2.0 NNW 33 50 18 27 1006.8 1006.8 0.0
18/02:00am 12.9 6.6 9.0 77 2.0 NNW 32 43 17 23 1007.4 1007.4 0.0
18/01:51am 13.1 6.6 9.0 76 2.1 NNW 33 52 18 28 1007.5 1007.5 0.0
18/01:30am 13.3 6.9 9.2 76 2.1 NNW 33 50 18 27 1007.9 1007.9 0.0
18/01:00am 13.3 6.5 9.2 76 2.1 NNW 35 56 19 30 1008.4 1008.4 0.0
18/12:57am 13.3 6.9 9.2 76 2.1 NNW 33 56 18 30 1008.5 1008.5 0.0
18/12:30am 13.3 6.5 9.2 76 2.1 NNW 35 50 19 27 1009.0 1009.0 0.0
18/12:11am 13.3 6.9 9.2 76 2.1 NNW 33 52 18 28 1009.4 1009.4 0.0
18/12:00am 13.4 6.7 9.5 77 2.0 NNW 35 46 19 25 1009.5 1009.5 0.0
 
Date/Time
EST
Temp
°C
App
Temp
°C
Dew
Point
Rel
Hum
%
Delta-T
°C
Wind Press
QNH
hPa
Press
MSL
hPa
Rain
since 9 am
mm
Dir
 
Spd
km/h
Gust
km/h
Spd
kts
Gust
kts
17/11:30pm 13.4 7.1 9.6 78 1.9 NNW 33 48 18 26 1010.0 1010.0 0.0
17/11:05pm 13.8 5.5 10.2 79 1.9 NNW 44 63 24 34 1010.5 1010.5 0.0
17/11:00pm 13.9 4.9 10.3 79 1.9 NW 48 65 26 35 1010.4 1010.4 0.0
17/10:30pm 14.1 3.9 10.1 77 2.1 NW 54 69 29 37 1010.8 1010.8 0.0
17/10:00pm 14.1 5.1 10.1 77 2.1 NNW 48 63 26 34 1011.0 1011.0 0.0
17/09:45pm 14.1 5.4 10.1 77 2.1 NNW 46 67 25 36 1011.3 1011.3 0.0
17/09:30pm 14.3 5.0 10.5 78 2.0 NNW 50 63 27 34 1011.3 1011.3 0.0
17/09:18pm 14.2 6.2 10.6 79 1.9 NNW 43 61 23 33 1011.7 1011.7 0.0
17/09:00pm 14.2 6.1 10.8 80 1.8 NNW 44 59 24 32 1011.9 1011.9 0.0
17/08:30pm 13.9 5.4 10.5 80 1.8 NNW 46 59 25 32 1012.2 1012.2 0.0
17/08:21pm 14.0 8.2 10.8 81 1.7 NNW 32 57 17 31 1012.2 1012.2 0.0
17/08:00pm 13.8 7.4 10.6 81 1.7 NNW 35 48 19 26 1012.4 1012.4 0.0
17/07:52pm 14.0 6.2 11.0 82 1.6 NNW 43 61 23 33 1012.4 1012.4 0.0
17/07:30pm 14.2 5.5 11.4 83 1.5 NW 48 59 26 32 1012.8 1012.8 0.0
17/07:12pm 13.9 5.2 11.4 85 1.3 NNW 48 67 26 36 1012.9 1012.9 0.0
17/07:00pm 13.6 4.5 11.3 86 1.2 NW 50 63 27 34 1013.0 1013.0 0.0
17/06:31pm 13.3 7.4 10.3 82 1.6 NNW 32 54 17 29 1013.3 1013.3 0.0
17/06:30pm 13.7 8.3 10.9 83 1.5 NNW 30 46 16 25 1013.3 1013.3 0.0
17/06:06pm 13.9 7.9 10.9 82 1.6 NNW 33 52 18 28 1013.3 1013.3 0.0
17/06:00pm 14.0 6.5 11.0 82 1.6 NNW 41 56 22 30 1013.3 1013.3 0.0
17/05:33pm 14.0 6.9 11.0 82 1.6 NNW 39 57 21 31 1013.4 1013.4 0.0
17/05:30pm 14.0 6.5 11.0 82 1.6 NNW 41 57 22 31 1013.4 1013.4 0.0
17/05:00pm 13.8 5.3 10.6 81 1.7 NW 46 59 25 32 1013.7 1013.7 0.0
17/04:30pm 14.4 6.4 10.6 78 2.0 NNW 43 61 23 33 1013.8 1013.9 0.0
17/04:00pm 14.3 6.3 10.3 77 2.1 NNW 43 61 23 33 1014.1 1014.1 0.0
17/03:54pm 14.3 6.6 10.3 77 2.1 NNW 41 61 22 33 1014.2 1014.3 0.0
17/03:30pm 14.5 6.5 10.5 77 2.1 NNW 43 57 23 31 1014.7 1014.8 0.0
17/03:00pm 14.6 7.0 10.4 76 2.2 NNW 41 57 22 31 1015.0 1015.0 0.0
17/02:30pm 14.8 6.7 10.8 77 2.1 NNW 44 59 24 32 1015.7 1015.7 0.0
17/02:00pm 14.4 5.8 10.2 76 2.2 NNW 46 56 25 30 1016.1 1016.0 0.0
17/01:30pm 14.5 6.5 10.3 76 2.2 NNW 43 54 23 29 1016.3 1016.3 0.0
17/01:00pm 14.9 6.4 10.7 76 2.2 NW 46 59 25 32 1016.9 1016.9 0.0
17/12:30pm 15.0 5.6 10.2 73 2.5 NW 50 59 27 32 1017.1 1017.1 0.0
17/12:00pm 15.3 5.9 10.3 72 2.6 NNW 50 65 27 35 1017.4 1017.4 0.0
17/11:51am 15.2 6.6 10.2 72 2.6 NNW 46 65 25 35 1017.4 1017.4 0.0
17/11:30am 15.2 5.9 10.6 74 2.4 NNW 50 65 27 35 1017.8 1017.8 0.0
17/11:00am 15.0 5.9 10.0 72 2.6 NW 48 57 26 31 1018.5 1018.5 0.0
17/10:30am 14.5 5.4 9.9 74 2.4 NW 48 57 26 31 1019.1 1019.1 0.0
17/10:00am 14.4 6.3 10.0 75 2.3 NNW 43 52 23 28 1019.3 1019.3 0.0
17/09:30am 14.1 6.1 10.3 78 2.0 NW 43 50 23 27 1019.4 1019.4 0.0
17/09:00am 13.7 5.5 10.3 80 1.8 NW 44 54 24 29 1019.5 1019.5 0.8
17/08:30am 13.5 5.5 11.0 85 1.3 NW 44 54 24 29 1019.9 1019.9 0.8
17/08:00am 12.6 7.0 10.1 85 1.3 NNW 30 46 16 25 1020.2 1020.2 0.8
17/07:30am 13.6 7.1 10.4 81 1.7 NW 35 46 19 25 1019.9 1019.9 0.8
17/07:00am 13.3 7.2 10.3 82 1.6 NW 33 41 18 22 1019.9 1019.9 0.8
17/06:30am 13.0 6.3 9.8 81 1.6 NW 35 43 19 23 1019.9 1019.9 0.8
17/06:00am 13.1 6.4 9.5 79 1.8 NW 35 46 19 25 1019.6 1019.6 0.8
17/05:30am 13.0 6.6 9.4 79 1.8 NW 33 43 18 23 1019.6 1019.6 0.8
17/05:00am 12.9 6.5 9.2 78 1.9 NW 33 41 18 22 1019.6 1019.6 0.8
17/04:30am 13.0 6.1 8.9 76 2.1 NW 35 44 19 24 1019.6 1019.6 0.8
17/04:00am 12.7 6.1 8.6 76 2.0 NW 33 39 18 21 1019.5 1019.5 0.8
17/03:30am 12.7 6.1 8.6 76 2.0 WNW 33 43 18 23 1019.6 1019.6 0.8
17/03:00am 12.6 6.0 8.5 76 2.0 WNW 33 41 18 22 1019.9 1019.9 0.8
17/02:30am 12.7 5.7 8.6 76 2.0 WNW 35 41 19 22 1020.2 1020.2 0.8
17/02:00am 12.7 6.7 8.6 76 2.0 WNW 30 37 16 20 1020.9 1020.9 0.8
17/01:30am 12.5 6.3 8.0 74 2.2 WNW 30 35 16 19 1021.3 1021.3 0.8
17/01:00am 12.5 5.7 7.8 73 2.3 WNW 33 39 18 21 1021.5 1021.5 0.8
17/12:30am 12.5 5.4 8.0 74 2.2 WNW 35 43 19 23 1021.4 1021.4 0.8
17/12:00am 12.5 5.5 8.6 77 1.9 WNW 35 39 19 21 1021.4 1021.4 0.8
 
Date/Time
EST
Temp
°C
App
Temp
°C
Dew
Point
Rel
Hum
%
Delta-T
°C
Wind Press
QNH
hPa
Press
MSL
hPa
Rain
since 9 am
mm
Dir
 
Spd
km/h
Gust
km/h
Spd
kts
Gust
kts
16/11:30pm 12.5 5.7 9.3 81 1.6 W 35 41 19 22 1021.6 1021.6 0.8
16/11:00pm 12.5 5.8 9.7 83 1.4 W 35 43 19 23 1021.5 1021.5 0.8
16/10:30pm 12.4 5.8 10.1 86 1.2 W 35 43 19 23 1021.6 1021.6 0.8
16/10:00pm 12.4 6.3 10.5 88 1.0 WNW 33 39 18 21 1021.3 1021.3 0.8
16/09:30pm 13.3 7.0 11.0 86 1.2 WNW 35 43 19 23 1021.3 1021.3 0.6
16/09:00pm 13.4 6.5 11.6 89 1.0 WNW 39 44 21 24 1021.1 1021.1 0.6
16/08:30pm 13.2 6.4 11.8 91 0.7 WNW 39 46 21 25 1021.1 1021.1 0.6
16/08:00pm 13.2 7.3 12.3 94 0.5 WNW 35 43 19 23 1021.1 1021.1 0.6
16/07:30pm 13.0 5.9 12.1 94 0.5 WNW 41 52 22 28 1020.8 1020.8 0.6
16/07:00pm 12.2 4.4 11.1 93 0.6 WNW 43 52 23 28 1020.6 1020.6 0.6
16/06:30pm 13.2 5.6 11.9 92 0.7 NW 43 52 23 28 1020.2 1020.2 0.4
16/06:00pm 12.7 4.9 11.1 90 0.8 NW 43 52 23 28 1019.9 1019.9 0.4
16/05:30pm 12.5 4.9 10.4 87 1.1 WNW 41 50 22 27 1020.0 1020.0 0.4
16/05:00pm 12.6 3.0 9.4 81 1.6 WNW 50 61 27 33 1020.0 1020.0 0.4
16/04:30pm 14.1 6.2 9.5 74 2.4 NW 41 52 22 28 1019.6 1019.6 0.0
16/04:00pm 14.3 5.8 9.3 72 2.6 NW 44 56 24 30 1019.8 1019.8 0.0
16/03:30pm 15.1 7.3 9.7 70 2.8 NW 41 50 22 27 1019.9 1019.9 0.0
16/03:00pm 14.4 6.9 9.6 73 2.5 NW 39 48 21 26 1020.0 1020.0 0.0
16/02:30pm 13.8 5.4 9.0 73 2.4 WNW 43 54 23 29 1020.4 1020.4 0.0
16/02:00pm 14.4 6.1 9.2 71 2.6 NW 43 54 23 29 1020.2 1020.2 0.0
16/01:30pm 14.7 7.1 9.1 69 2.9 WNW 39 48 21 26 1020.4 1020.4 0.0
16/01:00pm 14.4 6.0 9.0 70 2.7 WNW 43 50 23 27 1020.6 1020.6 0.0
16/12:30pm 13.7 5.5 8.1 69 2.8 NW 41 48 22 26 1020.9 1020.9 0.0
16/12:00pm 13.5 5.6 7.9 69 2.8 NW 39 48 21 26 1020.9 1020.9 0.0
16/11:30am 13.2 5.9 7.4 68 2.8 WNW 35 43 19 23 1021.1 1021.1 0.0
16/11:00am 13.5 5.9 7.7 68 2.8 WNW 37 44 20 24 1020.9 1020.9 0.0
16/10:30am 14.0 6.5 8.0 67 3.0 WNW 37 43 20 23 1020.9 1020.9 0.0
16/10:00am 12.7 6.5 7.8 72 2.4 WNW 30 39 16 21 1021.1 1021.1 0.0
16/09:30am 12.4 5.7 7.3 71 2.5 WNW 32 35 17 19 1021.2 1021.2 0.0
16/09:00am 12.1 5.7 7.0 71 2.4 WNW 30 35 16 19 1021.2 1021.2 3.2
16/08:30am 12.0 4.5 6.5 69 2.6 WNW 35 43 19 23 1021.2 1021.2 3.2
16/08:00am 12.1 5.5 7.6 74 2.2 W 32 37 17 20 1020.9 1020.9 3.2
16/07:30am 11.7 5.8 7.4 75 2.1 W 28 33 15 18 1020.7 1020.7 3.2
16/07:00am 11.7 5.2 8.0 78 1.8 W 32 41 17 22 1020.4 1020.4 3.2
16/06:30am 11.5 5.5 8.5 82 1.5 W 30 39 16 21 1019.9 1019.9 3.2
16/06:00am 11.5 4.7 9.1 85 1.2 W 35 44 19 24 1019.3 1019.3 3.2
16/05:30am 11.6 5.4 9.9 89 0.9 W 33 41 18 22 1018.6 1018.6 3.2
16/05:00am 11.8 5.8 10.7 93 0.6 W 33 43 18 23 1018.3 1018.3 3.2
16/04:30am 11.7 6.4 11.1 96 0.3 WSW 30 39 16 21 1017.7 1017.7 3.2
16/04:00am 11.8 6.9 11.3 97 0.3 WSW 28 35 15 19 1017.0 1017.0 3.2
16/03:30am 11.9 5.8 11.6 98 0.2 WSW 35 43 19 23 1016.8 1016.8 3.2
16/03:00am 12.0 6.5 11.7 98 0.2 WSW 32 43 17 23 1016.5 1016.5 3.2
16/02:30am 12.6 7.6 12.3 98 0.2 W 30 37 16 20 1016.5 1016.5 3.2
16/02:00am 12.4 7.0 12.2 99 0.1 W 32 39 17 21 1016.4 1016.3 3.0
16/01:30am 12.1 8.9 11.9 99 0.1 WSW 20 24 11 13 1015.9 1015.9 2.8
16/01:00am 12.4 8.5 12.2 99 0.1 WSW 24 35 13 19 1015.7 1015.6 2.2
16/12:53am 12.6 7.3 12.4 99 0.1 WSW 32 44 17 24 1015.7 1015.7 2.0
16/12:33am 13.1 6.6 12.9 99 0.1 WNW 39 54 21 29 1015.4 1015.5 2.0
16/12:30am 13.8 7.9 13.6 99 0.1 NW 37 54 20 29 1015.3 1015.4 2.0
16/12:00am 14.3 9.0 14.1 99 0.1 NW 35 43 19 23 1015.3 1015.3 1.8
 
Date/Time
EST
Temp
°C
App
Temp
°C
Dew
Point
Rel
Hum
%
Delta-T
°C
Wind Press
QNH
hPa
Press
MSL
hPa
Rain
since 9 am
mm
Dir
 
Spd
km/h
Gust
km/h
Spd
kts
Gust
kts
15/11:30pm 14.4 9.1 14.2 99 0.1 WNW 35 46 19 25 1015.3 1015.4 1.8
15/11:00pm 14.4 8.3 14.2 99 0.1 NW 39 50 21 27 1015.0 1015.0 1.8
15/10:30pm 14.6 9.4 14.4 99 0.1 NW 35 43 19 23 1014.7 1014.8 1.8
15/10:00pm 14.6 9.7 14.4 99 0.1 NNW 33 39 18 21 1014.7 1014.7 1.8
15/09:30pm 14.6 9.4 14.4 99 0.1 NW 35 43 19 23 1015.1 1015.2 1.8
15/09:00pm 14.8 9.3 14.6 99 0.1 NW 37 46 20 25 1014.9 1014.9 1.8
15/08:30pm 14.9 9.4 14.7 99 0.1 NW 37 46 20 25 1014.9 1015.0 1.8
15/08:00pm 14.9 9.8 14.7 99 0.1 NNW 35 46 19 25 1014.8 1014.8 0.8
15/07:30pm 14.9 10.7 14.7 99 0.1 NNW 30 39 16 21 1014.8 1014.9 0.0
15/07:00pm 15.0 10.2 14.7 98 0.2 NNW 33 44 18 24 1014.9 1014.9 0.0
15/06:30pm 14.9 9.7 14.4 97 0.3 NNW 35 46 19 25 1014.6 1014.7 0.0
15/06:00pm 15.1 10.3 14.5 96 0.3 NNW 33 43 18 23 1014.5 1014.5 0.0
15/05:30pm 15.3 10.7 14.5 95 0.5 NNW 32 41 17 22 1014.3 1014.4 0.0

Other Formats:

Comma delimited format used in spreadsheet applications
http://www.bom.gov.au/fwo/IDT60801/IDT60801.95961.axf

JavaScript Object Notation format (JSON) in row-major order
http://www.bom.gov.au/fwo/IDT60801/IDT60801.95961.json